Terminal Aerodrome Forecast
Issued by NWS Jackson, MS

Home | Current Version | Previous Version | Text Only | Print | Product List | Glossary On
Versions: 1 2 3 4 5 6 7 8 9 10 11 12 13 14 15
000
FTUS44 KMEG 261743 CCA
TAFTUP
TAF COR
KTUP 261743Z 2618/2718 17014G20KT P6SM BKN030
     FM270200 18020G32KT P6SM VCTS OVC030CB
      TEMPO 2703/2705 27020G30KT 1 1/2SM TSRA OVC015CB
     FM270500 28012G20KT P6SM VCSH SCT015 OVC050
     FM270900 29012KT P6SM FEW009 BKN015
     FM271200 28010KT P6SM OVC007
     FM271600 28008KT P6SM SCT007 OVC015=

USA.gov is the U.S. government's official web portal to all federal, state and local government web resources and services.